createdAt,value
2023-02-19T00:00:36.710Z,7.45
2023-02-19T00:02:38.830Z,7.90
2023-02-19T00:04:40.889Z,5.82
2023-02-19T00:06:43.981Z,8.05
2023-02-19T00:08:45.946Z,6.40
2023-02-19T00:10:47.991Z,8.10
2023-02-19T00:12:50.012Z,5.68
2023-02-19T00:14:52.185Z,7.80
2023-02-19T00:16:56.783Z,8.57
2023-02-19T00:19:00.743Z,8.20
2023-02-19T00:21:03.894Z,7.05
2023-02-19T00:23:05.906Z,7.07
2023-02-19T00:25:09.909Z,7.18
2023-02-19T00:27:12.812Z,7.97
2023-02-19T00:29:22.255Z,7.93
2023-02-19T00:31:33.531Z,8.25
2023-02-19T00:33:35.650Z,9.90
2023-02-19T00:35:37.965Z,8.82
2023-02-19T00:37:45.735Z,7.70
2023-02-19T00:39:47.615Z,6.45
2023-02-19T00:41:50.890Z,11.93
2023-02-19T00:43:58.244Z,7.90
2023-02-19T00:46:00.268Z,7.38
2023-02-19T00:48:02.280Z,7.35
2023-02-19T00:50:04.421Z,6.35
2023-02-19T00:52:06.368Z,8.57
2023-02-19T00:54:08.258Z,7.22
2023-02-19T00:56:11.416Z,7.32
2023-02-19T00:58:13.322Z,7.40
2023-02-19T01:00:15.443Z,7.90
2023-02-19T01:02:17.433Z,9.07
2023-02-19T01:04:19.605Z,8.00
2023-02-19T01:06:21.978Z,7.90
2023-02-19T01:08:24.178Z,7.00
2023-02-19T01:10:27.091Z,7.57
2023-02-19T01:12:29.110Z,8.25
2023-02-19T01:14:31.161Z,7.75
2023-02-19T01:16:35.215Z,6.40
2023-02-19T01:18:37.440Z,8.60
2023-02-19T01:20:44.100Z,6.95
2023-02-19T01:22:45.956Z,7.35
2023-02-19T01:24:48.010Z,6.05
2023-02-19T01:26:50.037Z,7.68
2023-02-19T01:28:52.502Z,7.35
2023-02-19T01:30:54.924Z,8.95
2023-02-19T01:32:56.961Z,9.70
2023-02-19T01:34:59.975Z,6.80
2023-02-19T01:37:02.378Z,6.22
2023-02-19T01:39:06.489Z,9.18
2023-02-19T01:41:11.281Z,9.25
2023-02-19T01:43:16.618Z,7.63
2023-02-19T01:45:26.828Z,7.28
2023-02-19T01:47:29.884Z,6.60
2023-02-19T01:49:40.391Z,6.07
2023-02-19T01:51:48.451Z,9.43
2023-02-19T01:53:57.720Z,7.18
2023-02-19T01:56:01.419Z,8.52
2023-02-19T01:58:07.192Z,5.75
2023-02-19T02:00:13.379Z,8.00
2023-02-19T02:02:15.334Z,6.93
2023-02-19T02:04:18.111Z,6.30
2023-02-19T02:06:25.193Z,9.68
2023-02-19T02:08:46.237Z,9.18
2023-02-19T02:10:48.428Z,10.77
2023-02-19T02:12:56.589Z,6.90
2023-02-19T02:14:58.573Z,9.82
2023-02-19T02:17:17.320Z,6.88
2023-02-19T02:19:48.245Z,8.30
2023-02-19T02:22:07.998Z,7.45
2023-02-19T02:24:47.563Z,9.52
2023-02-19T02:27:08.133Z,8.75
2023-02-19T02:29:09.999Z,8.77
2023-02-19T02:31:36.086Z,7.63
2023-02-19T02:33:55.539Z,8.48
2023-02-19T02:36:09.092Z,7.13
2023-02-19T02:38:13.906Z,8.68
2023-02-19T02:40:18.922Z,7.20
2023-02-19T02:42:29.812Z,8.82
2023-02-19T02:44:36.286Z,6.90
2023-02-19T02:46:42.571Z,7.45
2023-02-19T02:49:02.302Z,7.53
2023-02-19T02:51:27.062Z,7.00
2023-02-19T02:54:29.266Z,6.88
2023-02-19T02:56:33.046Z,8.63
2023-02-19T02:58:35.901Z,7.72
2023-02-19T03:00:57.869Z,5.28
2023-02-19T03:03:00.026Z,5.90
2023-02-19T03:05:32.050Z,4.72
2023-02-19T03:09:44.983Z,6.80
2023-02-19T03:12:09.717Z,7.13
2023-02-19T03:14:37.228Z,7.18
2023-02-19T03:17:00.748Z,6.75
2023-02-19T03:19:20.232Z,8.60
2023-02-19T03:21:23.661Z,7.78
2023-02-19T03:23:50.358Z,10.13
2023-02-19T03:26:04.347Z,8.18
2023-02-19T03:28:11.360Z,7.75
2023-02-19T03:30:19.491Z,6.38
2023-02-19T03:32:34.472Z,9.85
2023-02-19T03:34:44.385Z,6.95
2023-02-19T03:36:54.201Z,9.00
2023-02-19T03:39:07.941Z,7.45
2023-02-19T03:41:18.760Z,5.82
2023-02-19T03:43:56.436Z,6.70
2023-02-19T03:46:30.862Z,6.60
2023-02-19T03:48:38.628Z,7.78
2023-02-19T03:50:43.593Z,9.52
2023-02-19T03:53:04.015Z,8.57
2023-02-19T03:55:17.068Z,8.95
2023-02-19T03:57:31.605Z,6.95
2023-02-19T03:59:42.214Z,5.20
2023-02-19T04:01:56.958Z,9.95
2023-02-19T04:04:06.581Z,7.50
2023-02-19T04:06:15.476Z,8.68
2023-02-19T04:08:20.969Z,6.50
2023-02-19T04:10:24.167Z,6.53
2023-02-19T04:12:27.302Z,8.88
2023-02-19T04:14:36.710Z,8.35
2023-02-19T04:16:43.154Z,6.20
2023-02-19T04:18:49.722Z,7.22
2023-02-19T04:20:52.708Z,6.13
2023-02-19T04:22:55.300Z,8.07
2023-02-19T04:24:58.406Z,7.50
2023-02-19T04:27:01.686Z,7.68
2023-02-19T04:29:04.788Z,6.70
2023-02-19T04:31:09.401Z,7.13
2023-02-19T04:33:11.652Z,8.02
2023-02-19T04:35:13.663Z,6.15
2023-02-19T04:37:15.648Z,6.63
2023-02-19T04:39:17.602Z,5.75
2023-02-19T04:41:19.585Z,6.88
2023-02-19T04:43:21.575Z,9.32
2023-02-19T04:45:23.536Z,6.80
2023-02-19T04:47:26.590Z,7.10
2023-02-19T04:49:28.602Z,8.85
2023-02-19T04:51:30.731Z,6.90
2023-02-19T04:53:32.844Z,8.05
2023-02-19T04:55:39.250Z,8.52
2023-02-19T04:57:42.227Z,7.57
2023-02-19T04:59:44.154Z,6.97
2023-02-19T05:01:46.300Z,7.20
2023-02-19T05:03:48.277Z,6.75
2023-02-19T05:05:50.180Z,6.68
2023-02-19T05:07:52.128Z,7.93
2023-02-19T05:09:54.093Z,5.55
2023-02-19T05:11:55.941Z,7.38
2023-02-19T05:13:57.884Z,7.25
2023-02-19T05:16:02.670Z,8.32
2023-02-19T05:18:04.912Z,4.90
2023-02-19T05:20:07.357Z,7.85
2023-02-19T05:22:09.390Z,8.82
2023-02-19T05:24:11.465Z,6.30
2023-02-19T05:26:20.595Z,7.28
2023-02-19T05:28:28.835Z,8.25
2023-02-19T05:30:30.852Z,6.07
2023-02-19T05:32:35.270Z,7.05
2023-02-19T05:34:37.305Z,9.02
2023-02-19T05:36:40.142Z,7.95
2023-02-19T05:38:42.443Z,7.68
2023-02-19T05:40:47.637Z,6.97
2023-02-19T05:42:49.574Z,6.20
2023-02-19T05:44:51.489Z,9.35
2023-02-19T05:46:53.524Z,7.90
2023-02-19T05:48:56.019Z,9.50
2023-02-19T05:51:04.319Z,7.47
2023-02-19T05:53:06.550Z,8.10
2023-02-19T05:55:08.609Z,9.80
2023-02-19T05:57:10.573Z,9.00
2023-02-19T05:59:24.415Z,8.60
2023-02-19T06:01:29.081Z,8.00
2023-02-19T06:03:31.093Z,10.57
2023-02-19T06:05:33.113Z,10.25
2023-02-19T06:07:35.541Z,6.20
2023-02-19T06:09:38.484Z,6.95
2023-02-19T06:11:40.743Z,8.88
2023-02-19T06:13:42.772Z,8.80
2023-02-19T06:15:44.672Z,7.85
2023-02-19T06:17:46.607Z,9.00
2023-02-19T06:19:48.564Z,10.60
2023-02-19T06:21:51.252Z,9.57
2023-02-19T06:23:54.749Z,8.57
2023-02-19T06:26:09.548Z,7.68
2023-02-19T06:28:11.545Z,8.32
2023-02-19T06:30:13.689Z,8.27
2023-02-19T06:32:16.893Z,7.55
2023-02-19T06:34:19.042Z,7.72
2023-02-19T06:36:21.936Z,8.68
2023-02-19T06:38:23.946Z,8.27
2023-02-19T06:40:25.900Z,8.00
2023-02-19T06:42:27.923Z,9.18
2023-02-19T06:44:29.986Z,8.18
2023-02-19T06:46:31.960Z,11.27
2023-02-19T06:48:34.862Z,7.55
2023-02-19T06:50:38.851Z,7.60
2023-02-19T06:52:41.901Z,10.50
2023-02-19T06:54:43.898Z,8.93
2023-02-19T06:56:47.153Z,7.43
2023-02-19T06:58:50.346Z,8.98
2023-02-19T07:00:53.280Z,10.38
2023-02-19T07:02:56.825Z,9.48
2023-02-19T07:04:58.870Z,11.10
2023-02-19T07:07:01.854Z,10.07
2023-02-19T07:09:05.367Z,9.50
2023-02-19T07:11:07.423Z,7.32
2023-02-19T07:13:09.421Z,10.32
2023-02-19T07:15:11.760Z,10.13
2023-02-19T07:17:13.979Z,9.77
2023-02-19T07:19:16.026Z,10.90
2023-02-19T07:21:21.875Z,7.30
2023-02-19T07:23:23.804Z,9.07
2023-02-19T07:25:29.930Z,7.90
2023-02-19T07:27:32.066Z,8.88
2023-02-19T07:29:34.075Z,9.10
2023-02-19T07:31:37.124Z,13.30
2023-02-19T07:33:39.167Z,12.27
2023-02-19T07:35:51.338Z,12.05
2023-02-19T07:37:53.489Z,10.30
2023-02-19T07:39:57.366Z,8.63
2023-02-19T07:41:59.311Z,8.80
2023-02-19T07:44:03.238Z,11.07
2023-02-19T07:46:11.464Z,12.13
2023-02-19T07:48:13.566Z,13.90
2023-02-19T07:50:16.587Z,15.30
2023-02-19T07:52:18.883Z,13.70
2023-02-19T07:54:24.022Z,14.70
2023-02-19T07:56:26.059Z,12.13
2023-02-19T07:58:28.563Z,10.43
2023-02-19T08:00:30.900Z,12.15
2023-02-19T08:02:52.527Z,13.40
2023-02-19T08:04:54.440Z,12.05
2023-02-19T08:06:56.510Z,9.95
2023-02-19T08:08:58.764Z,9.85
2023-02-19T08:11:21.676Z,10.23
2023-02-19T08:13:27.469Z,10.10
2023-02-19T08:15:30.699Z,10.45
2023-02-19T08:17:32.740Z,8.75
2023-02-19T08:19:34.831Z,10.57
2023-02-19T08:21:43.212Z,13.00
2023-02-19T08:23:51.286Z,10.15
2023-02-19T08:25:57.017Z,11.57
2023-02-19T08:28:00.602Z,9.63
2023-02-19T08:30:02.809Z,12.63
2023-02-19T08:32:05.081Z,10.68
2023-02-19T08:34:07.247Z,10.05
2023-02-19T08:36:10.033Z,14.23
2023-02-19T08:38:16.515Z,10.77
2023-02-19T08:40:19.620Z,11.52
2023-02-19T08:42:21.564Z,9.55
2023-02-19T08:44:26.602Z,12.02
2023-02-19T08:46:34.424Z,12.40
2023-02-19T08:48:37.236Z,10.40
2023-02-19T08:50:40.601Z,9.93
2023-02-19T08:52:47.935Z,10.40
2023-02-19T08:54:49.887Z,9.38
2023-02-19T08:56:54.044Z,9.40
2023-02-19T08:58:57.011Z,10.80
2023-02-19T09:00:59.147Z,9.20
2023-02-19T09:03:01.095Z,9.50
2023-02-19T09:05:03.835Z,11.60
2023-02-19T09:07:08.095Z,9.85
2023-02-19T09:09:10.185Z,13.02
2023-02-19T09:11:12.447Z,12.05
2023-02-19T09:13:14.676Z,13.43
2023-02-19T09:15:16.788Z,8.07
2023-02-19T09:17:19.815Z,11.10
2023-02-19T09:19:21.825Z,10.63
2023-02-19T09:21:23.844Z,9.65
2023-02-19T09:23:25.854Z,9.98
2023-02-19T09:25:27.880Z,9.98
2023-02-19T09:27:31.955Z,8.02
2023-02-19T09:29:34.799Z,10.15
2023-02-19T09:31:36.991Z,9.38
2023-02-19T09:33:42.808Z,9.88
2023-02-19T09:35:44.752Z,7.65
2023-02-19T09:37:55.915Z,9.98
2023-02-19T09:39:57.994Z,11.27
2023-02-19T09:42:23.514Z,11.07
2023-02-19T09:44:31.079Z,10.32
2023-02-19T09:46:49.948Z,8.23
2023-02-19T09:48:56.267Z,9.10
2023-02-19T09:51:02.009Z,13.48
2023-02-19T09:53:20.499Z,6.88
2023-02-19T09:55:34.887Z,7.97
2023-02-19T09:57:44.004Z,9.20
2023-02-19T09:59:50.521Z,6.45
2023-02-19T10:02:02.482Z,9.75
2023-02-19T10:04:11.511Z,8.80
2023-02-19T10:06:32.979Z,11.25
2023-02-19T10:08:38.508Z,7.13
2023-02-19T10:10:41.734Z,11.55
2023-02-19T10:13:24.073Z,9.40
2023-02-19T10:15:35.305Z,8.07
2023-02-19T10:17:40.938Z,8.60
2023-02-19T10:19:48.113Z,10.32
2023-02-19T10:21:53.392Z,8.43
2023-02-19T10:24:01.282Z,8.43
2023-02-19T10:26:03.478Z,9.48
2023-02-19T10:28:15.024Z,8.98
2023-02-19T10:32:29.875Z,10.07
2023-02-19T10:34:33.270Z,10.43
2023-02-19T10:36:42.857Z,7.85
2023-02-19T10:38:48.393Z,9.13
2023-02-19T10:40:58.789Z,8.85
2023-02-19T10:43:04.653Z,8.35
2023-02-19T10:45:22.145Z,9.65
2023-02-19T10:47:26.747Z,6.50
2023-02-19T10:49:38.767Z,16.13
2023-02-19T10:51:42.236Z,10.70
2023-02-19T10:54:03.865Z,9.40
2023-02-19T10:56:14.931Z,10.85
2023-02-19T10:58:28.283Z,9.15
2023-02-19T11:00:31.214Z,10.10
2023-02-19T11:02:33.861Z,6.72
2023-02-19T11:04:38.409Z,8.13
2023-02-19T11:06:41.112Z,9.57
2023-02-19T11:08:57.854Z,7.47
2023-02-19T11:11:00.288Z,9.05
2023-02-19T11:13:05.175Z,8.93
2023-02-19T11:15:29.610Z,8.15
2023-02-19T11:17:32.875Z,7.78
2023-02-19T11:19:39.379Z,6.47
2023-02-19T11:21:41.572Z,7.50
2023-02-19T11:23:49.660Z,8.13
2023-02-19T11:25:57.428Z,6.55
2023-02-19T11:28:08.715Z,9.20
2023-02-19T11:30:39.127Z,8.55
2023-02-19T11:32:41.205Z,7.18
2023-02-19T11:34:43.222Z,7.25
2023-02-19T11:36:46.919Z,7.28
2023-02-19T11:38:49.129Z,8.27
2023-02-19T11:41:27.381Z,7.05
2023-02-19T11:43:35.426Z,7.43
2023-02-19T11:46:13.303Z,7.45
2023-02-19T11:48:23.582Z,8.48
2023-02-19T11:50:25.967Z,7.18
2023-02-19T11:52:51.864Z,6.35
2023-02-19T11:55:09.894Z,6.47
2023-02-19T11:57:34.336Z,9.13
2023-02-19T11:59:41.002Z,7.57
2023-02-19T12:02:27.500Z,9.00
2023-02-19T12:04:52.805Z,8.13
2023-02-19T12:07:13.377Z,4.80
2023-02-19T12:09:19.300Z,7.10
2023-02-19T12:11:54.069Z,9.52
2023-02-19T12:14:28.548Z,7.93
2023-02-19T12:16:34.764Z,6.07
2023-02-19T12:18:40.142Z,7.85
2023-02-19T12:21:05.841Z,8.52
2023-02-19T12:23:38.119Z,13.63
2023-02-19T12:25:58.810Z,8.65
2023-02-19T12:28:27.511Z,9.55
2023-02-19T12:30:49.655Z,7.68
2023-02-19T12:33:26.312Z,6.80
2023-02-19T12:35:46.897Z,7.10
2023-02-19T12:38:05.135Z,8.75
2023-02-19T12:40:34.019Z,7.13
2023-02-19T12:43:03.633Z,7.05
2023-02-19T12:45:18.367Z,6.22
2023-02-19T12:47:25.716Z,6.80
2023-02-19T12:49:40.996Z,7.10
2023-02-19T12:51:50.366Z,6.88
2023-02-19T12:54:13.829Z,6.90
2023-02-19T12:56:29.192Z,9.32
2023-02-19T12:59:03.045Z,6.75
2023-02-19T13:01:07.886Z,5.95
2023-02-19T13:03:33.060Z,7.22
2023-02-19T13:05:51.377Z,7.65
2023-02-19T13:08:26.218Z,7.57
2023-02-19T13:10:47.979Z,6.28
2023-02-19T13:15:10.415Z,7.15
2023-02-19T13:17:27.127Z,8.57
2023-02-19T13:19:32.104Z,10.07
2023-02-19T13:21:57.408Z,8.77
2023-02-19T13:24:06.989Z,8.43
2023-02-19T13:26:37.343Z,8.70
2023-02-19T13:29:10.122Z,10.15
2023-02-19T13:31:45.350Z,7.80
2023-02-19T13:34:26.395Z,13.57
2023-02-19T13:36:30.466Z,5.75
2023-02-19T13:38:42.122Z,6.22
2023-02-19T13:40:58.240Z,6.28
2023-02-19T13:43:06.190Z,10.50
2023-02-19T13:45:28.822Z,7.90
2023-02-19T13:47:50.752Z,8.60
2023-02-19T13:50:10.517Z,7.85
2023-02-19T13:52:30.776Z,4.38
2023-02-19T13:54:41.261Z,8.25
2023-02-19T13:56:44.056Z,4.43
2023-02-19T13:59:21.936Z,5.43
2023-02-19T14:01:54.130Z,6.82
2023-02-19T14:04:19.119Z,7.57
2023-02-19T14:06:22.160Z,5.32
2023-02-19T14:08:50.742Z,4.32
2023-02-19T14:11:03.064Z,5.93
2023-02-19T14:13:09.091Z,9.18
2023-02-19T14:15:49.554Z,6.47
2023-02-19T14:17:51.985Z,5.30
2023-02-19T14:19:59.645Z,7.10
2023-02-19T14:22:01.954Z,4.70
2023-02-19T14:24:05.740Z,7.45
2023-02-19T14:26:10.186Z,7.05
2023-02-19T14:28:16.755Z,6.82
2023-02-19T14:30:23.286Z,7.13
2023-02-19T14:34:31.306Z,8.10
2023-02-19T14:36:51.100Z,7.18
2023-02-19T14:39:00.541Z,6.20
2023-02-19T14:41:05.055Z,7.22
2023-02-19T14:43:18.936Z,5.03
2023-02-19T14:45:22.780Z,6.57
2023-02-19T14:47:31.524Z,6.03
2023-02-19T14:49:50.561Z,5.68
2023-02-19T14:51:58.791Z,8.07
2023-02-19T14:54:14.041Z,4.72
2023-02-19T14:56:33.099Z,5.57
2023-02-19T14:58:37.644Z,5.25
2023-02-19T15:00:45.437Z,6.72
2023-02-19T15:02:48.090Z,5.93
2023-02-19T15:04:51.967Z,5.30
2023-02-19T15:06:58.582Z,6.43
2023-02-19T15:09:07.663Z,5.40
2023-02-19T15:11:24.503Z,5.75
2023-02-19T15:13:32.337Z,6.60
2023-02-19T15:15:40.893Z,6.80
2023-02-19T15:17:43.919Z,7.43
2023-02-19T15:19:48.361Z,6.43
2023-02-19T15:21:51.683Z,6.38
2023-02-19T15:24:02.080Z,7.95
2023-02-19T15:26:06.500Z,8.27
2023-02-19T15:28:33.343Z,7.07
2023-02-19T15:30:37.257Z,9.02
2023-02-19T15:32:40.206Z,9.55
2023-02-19T15:34:55.199Z,8.38
2023-02-19T15:37:09.397Z,6.63
2023-02-19T15:39:41.101Z,7.55
2023-02-19T15:41:45.285Z,8.95
2023-02-19T15:44:11.606Z,10.48
2023-02-19T15:46:24.525Z,7.60
2023-02-19T15:48:37.520Z,9.23
2023-02-19T15:50:45.129Z,7.57
2023-02-19T15:52:59.431Z,7.60
2023-02-19T15:55:30.995Z,6.75
2023-02-19T15:57:39.836Z,6.50
2023-02-19T16:00:03.825Z,8.27
2023-02-19T16:02:16.641Z,7.30
2023-02-19T16:04:21.092Z,8.57
2023-02-19T16:06:26.061Z,7.55
2023-02-19T16:08:35.538Z,7.38
2023-02-19T16:10:39.103Z,7.15
2023-02-19T16:12:42.062Z,6.90
2023-02-19T16:14:47.798Z,7.47
2023-02-19T16:16:54.643Z,7.95
2023-02-19T16:18:58.230Z,9.27
2023-02-19T16:21:06.711Z,7.55
2023-02-19T16:23:16.567Z,9.20
2023-02-19T16:25:28.477Z,6.50
2023-02-19T16:27:35.561Z,7.35
2023-02-19T16:29:39.502Z,6.57
2023-02-19T16:32:02.267Z,7.22
2023-02-19T16:34:32.600Z,9.27
2023-02-19T16:36:42.306Z,9.32
2023-02-19T16:39:16.249Z,8.90
2023-02-19T16:41:27.712Z,12.02
2023-02-19T16:43:51.049Z,13.95
2023-02-19T16:46:00.238Z,12.90
2023-02-19T16:48:05.462Z,14.48
2023-02-19T16:50:16.761Z,11.57
2023-02-19T16:52:23.578Z,12.90
2023-02-19T16:54:26.203Z,12.95
2023-02-19T16:56:40.111Z,11.23
2023-02-19T16:58:43.799Z,8.98
2023-02-19T17:00:49.577Z,10.43
2023-02-19T17:02:57.176Z,10.82
2023-02-19T17:05:02.364Z,11.50
2023-02-19T17:07:15.526Z,15.45
2023-02-19T17:09:18.973Z,15.23
2023-02-19T17:11:21.572Z,11.85
2023-02-19T17:13:38.976Z,9.95
2023-02-19T17:15:43.383Z,12.23
2023-02-19T17:17:48.672Z,9.60
2023-02-19T17:19:55.025Z,11.85
2023-02-19T17:22:00.074Z,8.02
2023-02-19T17:24:04.400Z,10.18
2023-02-19T17:26:07.466Z,11.55
2023-02-19T17:28:11.305Z,10.80
2023-02-19T17:30:21.818Z,13.00
2023-02-19T17:32:25.173Z,12.18
2023-02-19T17:34:29.369Z,12.88
2023-02-19T17:36:34.279Z,11.35
2023-02-19T17:38:37.091Z,13.32
2023-02-19T17:40:41.362Z,10.77
2023-02-19T17:42:49.075Z,13.35
2023-02-19T17:44:53.992Z,9.98
2023-02-19T17:46:57.113Z,8.85
2023-02-19T17:49:04.034Z,15.20
2023-02-19T17:51:06.893Z,9.02
2023-02-19T17:53:10.263Z,9.10
2023-02-19T17:55:15.947Z,9.90
2023-02-19T17:57:19.517Z,12.05
2023-02-19T17:59:23.122Z,12.15
2023-02-19T18:01:26.376Z,11.20
2023-02-19T18:03:30.801Z,8.82
2023-02-19T18:05:33.976Z,11.65
2023-02-19T18:07:36.874Z,13.55
2023-02-19T18:09:41.346Z,18.42
2023-02-19T18:11:47.810Z,16.17
2023-02-19T18:13:52.963Z,14.35
2023-02-19T18:15:56.016Z,15.13
2023-02-19T18:18:01.301Z,15.52
2023-02-19T18:20:07.917Z,12.35
2023-02-19T18:22:10.969Z,10.40
2023-02-19T18:24:13.883Z,11.23
2023-02-19T18:26:21.641Z,12.80
2023-02-19T18:28:26.300Z,12.43
2023-02-19T18:30:30.682Z,10.65
2023-02-19T18:32:36.174Z,12.95
2023-02-19T18:34:39.326Z,11.55
2023-02-19T18:36:50.877Z,12.15
2023-02-19T18:38:53.845Z,11.90
2023-02-19T18:41:10.549Z,12.05
2023-02-19T18:43:16.118Z,14.00
2023-02-19T18:45:22.009Z,12.00
2023-02-19T18:47:27.890Z,14.20
2023-02-19T18:49:38.762Z,13.40
2023-02-19T18:51:41.798Z,10.82
2023-02-19T18:53:45.064Z,11.82
2023-02-19T18:55:48.035Z,11.15
2023-02-19T18:57:51.440Z,11.68
2023-02-19T18:59:55.864Z,11.02
2023-02-19T19:01:59.130Z,11.40
2023-02-19T19:04:02.565Z,11.02
2023-02-19T19:06:06.024Z,12.32
2023-02-19T19:08:09.151Z,13.80
2023-02-19T19:10:15.854Z,12.82
2023-02-19T19:12:20.168Z,13.85
2023-02-19T19:14:24.914Z,14.43
2023-02-19T19:16:30.570Z,12.95
2023-02-19T19:18:38.846Z,16.35
2023-02-19T19:20:44.261Z,18.77
2023-02-19T19:22:51.394Z,14.85
2023-02-19T19:24:58.461Z,15.27
2023-02-19T19:27:01.663Z,16.63
2023-02-19T19:29:05.193Z,13.52
2023-02-19T19:31:08.318Z,13.18
2023-02-19T19:33:12.140Z,9.50
2023-02-19T19:35:18.867Z,9.82
2023-02-19T19:37:22.136Z,10.18
2023-02-19T19:39:31.050Z,11.30
2023-02-19T19:41:34.382Z,13.82
2023-02-19T19:43:38.115Z,13.43
2023-02-19T19:45:40.919Z,15.43
2023-02-19T19:47:45.134Z,15.10
2023-02-19T19:49:50.793Z,13.43
2023-02-19T19:51:53.888Z,12.25
2023-02-19T19:53:57.037Z,12.68
2023-02-19T19:56:04.388Z,12.43
2023-02-19T19:58:07.243Z,12.85
2023-02-19T20:00:18.995Z,11.27
2023-02-19T20:02:24.798Z,8.43
2023-02-19T20:04:30.826Z,7.97
2023-02-19T20:06:34.819Z,7.72
2023-02-19T20:08:38.673Z,9.90
2023-02-19T20:10:45.958Z,7.40
2023-02-19T20:12:50.065Z,7.18
2023-02-19T20:14:53.681Z,6.28
2023-02-19T20:19:16.153Z,6.88
2023-02-19T20:21:18.946Z,8.48
2023-02-19T20:23:22.941Z,7.57
2023-02-19T20:25:25.974Z,9.55
2023-02-19T20:27:30.092Z,8.10
2023-02-19T20:29:34.995Z,6.40
2023-02-19T20:31:40.160Z,9.80
2023-02-19T20:33:44.225Z,10.73
2023-02-19T20:35:47.370Z,16.17
2023-02-19T20:37:50.330Z,18.35
2023-02-19T20:39:53.267Z,22.25
2023-02-19T20:41:59.097Z,8.18
2023-02-19T20:44:02.175Z,8.70
2023-02-19T20:46:05.189Z,8.93
2023-02-19T20:48:08.225Z,8.80
2023-02-19T20:50:19.612Z,11.38
2023-02-19T20:52:25.083Z,11.80
2023-02-19T20:54:31.790Z,13.18
2023-02-19T20:56:35.395Z,12.30
2023-02-19T20:58:37.771Z,11.35
2023-02-19T21:00:41.627Z,12.05
2023-02-19T21:02:44.735Z,9.30
2023-02-19T21:04:48.675Z,8.32
2023-02-19T21:06:52.570Z,8.90
2023-02-19T21:08:55.077Z,9.35
2023-02-19T21:10:57.990Z,7.57
2023-02-19T21:13:00.727Z,7.60
2023-02-19T21:15:03.671Z,9.75
2023-02-19T21:17:08.760Z,6.35
2023-02-19T21:19:11.686Z,7.20
2023-02-19T21:21:20.855Z,8.00
2023-02-19T21:23:24.592Z,6.93
2023-02-19T21:25:27.501Z,7.38
2023-02-19T21:27:29.766Z,6.72
2023-02-19T21:29:32.192Z,6.97
2023-02-19T21:31:44.155Z,8.48
2023-02-19T21:33:49.688Z,7.97
2023-02-19T21:35:52.950Z,6.82
2023-02-19T21:37:57.742Z,11.15
2023-02-19T21:40:01.539Z,7.97
2023-02-19T21:42:10.465Z,6.00
2023-02-19T21:44:17.088Z,7.95
2023-02-19T21:46:20.749Z,7.80
2023-02-19T21:48:23.213Z,15.63
2023-02-19T21:50:25.414Z,9.25
2023-02-19T21:52:35.597Z,11.15
2023-02-19T21:54:38.725Z,9.73
2023-02-19T21:56:42.412Z,11.45
2023-02-19T21:58:45.876Z,10.98
2023-02-19T22:00:48.135Z,11.32
2023-02-19T22:02:50.674Z,15.48
2023-02-19T22:04:54.597Z,12.18
2023-02-19T22:06:57.258Z,11.77
2023-02-19T22:09:00.667Z,11.43
2023-02-19T22:11:02.588Z,13.40
2023-02-19T22:13:04.640Z,10.85
2023-02-19T22:15:09.471Z,8.60
2023-02-19T22:17:12.741Z,10.60
2023-02-19T22:19:18.800Z,13.65
2023-02-19T22:21:22.480Z,12.52
2023-02-19T22:23:24.496Z,15.30
2023-02-19T22:25:26.559Z,12.52
2023-02-19T22:27:29.653Z,11.77
2023-02-19T22:29:31.751Z,12.13
2023-02-19T22:31:35.934Z,13.55
2023-02-19T22:33:38.023Z,12.05
2023-02-19T22:35:41.463Z,10.98
2023-02-19T22:37:44.458Z,12.13
2023-02-19T22:39:46.453Z,8.55
2023-02-19T22:41:51.830Z,9.98
2023-02-19T22:43:57.936Z,10.02
2023-02-19T22:45:59.994Z,8.68
2023-02-19T22:48:02.011Z,11.15
2023-02-19T22:50:07.676Z,8.57
2023-02-19T22:52:10.573Z,11.57
2023-02-19T22:54:12.597Z,12.45
2023-02-19T22:56:17.160Z,9.23
2023-02-19T22:58:19.124Z,10.13
2023-02-19T23:00:22.001Z,9.82
2023-02-19T23:02:24.018Z,11.32
2023-02-19T23:04:26.740Z,9.13
2023-02-19T23:06:31.791Z,9.60
2023-02-19T23:08:33.694Z,10.52
2023-02-19T23:10:35.699Z,9.63
2023-02-19T23:12:38.522Z,8.70
2023-02-19T23:14:41.556Z,9.88
2023-02-19T23:16:43.685Z,9.80
2023-02-19T23:18:46.429Z,11.55
2023-02-19T23:20:50.344Z,9.88
2023-02-19T23:22:59.047Z,10.35
2023-02-19T23:25:01.726Z,10.80
2023-02-19T23:27:03.774Z,9.93
2023-02-19T23:29:05.734Z,10.68
2023-02-19T23:31:08.154Z,8.98
2023-02-19T23:33:10.152Z,8.30
2023-02-19T23:35:12.129Z,9.82
2023-02-19T23:37:15.270Z,8.50
2023-02-19T23:39:20.564Z,9.00
2023-02-19T23:41:23.577Z,7.85
2023-02-19T23:43:26.533Z,11.48
2023-02-19T23:45:31.424Z,8.10
2023-02-19T23:47:33.416Z,11.70
2023-02-19T23:49:36.630Z,13.38
2023-02-19T23:51:38.643Z,11.52
2023-02-19T23:53:40.693Z,9.45
2023-02-19T23:55:42.834Z,9.27
2023-02-19T23:57:44.777Z,8.65
2023-02-19T23:59:49.351Z,13.23
